createdAt,value
2022-10-01T00:09:43.042Z,42.70
2022-10-01T00:24:44.496Z,42.80
2022-10-01T00:39:45.946Z,42.80
2022-10-01T00:54:47.401Z,42.90
2022-10-01T01:09:48.877Z,43.00
2022-10-01T01:24:50.327Z,43.10
2022-10-01T01:39:51.813Z,43.10
2022-10-01T01:54:53.261Z,43.10
2022-10-01T02:09:54.708Z,43.30
2022-10-01T02:24:56.162Z,43.30
2022-10-01T02:39:57.617Z,43.30
2022-10-01T02:54:59.070Z,43.40
2022-10-01T03:10:00.529Z,43.40
2022-10-01T03:25:01.980Z,43.50
2022-10-01T03:40:03.446Z,43.40
2022-10-01T03:55:04.918Z,43.50
2022-10-01T04:10:06.363Z,43.60
2022-10-01T04:25:07.835Z,43.60
2022-10-01T04:40:09.290Z,43.60
2022-10-01T04:55:10.799Z,43.60
2022-10-01T05:10:12.250Z,43.60
2022-10-01T05:25:13.723Z,43.70
2022-10-01T05:40:15.208Z,43.70
2022-10-01T05:55:16.662Z,43.70
2022-10-01T06:10:18.123Z,43.90
2022-10-01T06:25:19.575Z,44.70
2022-10-01T06:40:21.061Z,44.70
2022-10-01T06:55:22.528Z,45.00
2022-10-01T07:10:23.983Z,45.10
2022-10-01T07:25:25.455Z,45.50
2022-10-01T07:40:26.910Z,46.10
2022-10-01T07:55:28.368Z,46.00
2022-10-01T08:10:29.820Z,44.50
2022-10-01T08:25:31.279Z,44.40
2022-10-01T08:40:32.734Z,44.50
2022-10-01T08:55:34.190Z,44.60
2022-10-01T09:10:35.641Z,44.50
2022-10-01T09:40:53.605Z,44.60
2022-10-01T09:55:55.058Z,44.60
2022-10-01T10:10:56.514Z,44.50
2022-10-01T10:25:57.978Z,44.60
2022-10-01T10:40:59.436Z,44.80
2022-10-01T10:56:00.886Z,45.10
2022-10-01T11:11:02.339Z,44.80
2022-10-01T11:26:03.813Z,42.10
2022-10-01T11:41:05.268Z,41.40
2022-10-01T11:56:06.718Z,41.60
2022-10-01T12:11:08.182Z,43.20
2022-10-01T12:26:09.650Z,40.00
2022-10-01T12:41:11.102Z,36.00
2022-10-01T12:56:12.562Z,34.10
2022-10-01T13:11:14.022Z,32.60
2022-10-01T13:26:15.487Z,32.90
2022-10-01T13:41:16.951Z,33.40
2022-10-01T13:56:18.409Z,34.00
2022-10-01T14:11:19.858Z,34.70
2022-10-01T14:26:21.573Z,35.40
2022-10-01T14:41:23.034Z,35.80
2022-10-01T14:56:24.492Z,36.20
2022-10-01T15:11:25.940Z,36.90
2022-10-01T15:26:27.421Z,37.30
2022-10-01T15:41:33.007Z,37.80
2022-10-01T15:56:35.076Z,38.30
2022-10-01T16:11:36.767Z,38.50
2022-10-01T16:26:38.351Z,39.00
2022-10-01T16:41:39.951Z,38.60
2022-10-01T16:56:41.424Z,38.50
2022-10-01T17:11:42.891Z,38.70
2022-10-01T17:26:44.352Z,39.00
2022-10-01T17:41:45.809Z,39.30
2022-10-01T17:56:47.275Z,39.60
2022-10-01T18:11:48.787Z,39.90
2022-10-01T18:26:50.221Z,40.10
2022-10-01T18:41:51.670Z,40.50
2022-10-01T18:56:53.149Z,40.70
2022-10-01T19:11:54.610Z,41.00
2022-10-01T19:26:56.056Z,41.10
2022-10-01T19:41:57.534Z,41.50
2022-10-01T19:56:59.016Z,41.70
2022-10-01T20:12:00.478Z,42.00
2022-10-01T20:27:01.937Z,42.20
2022-10-01T20:42:03.377Z,42.50
2022-10-01T20:57:04.836Z,42.90
2022-10-01T21:12:06.299Z,43.20
2022-10-01T21:27:07.757Z,43.30
2022-10-01T21:42:09.211Z,43.60
2022-10-01T21:57:10.666Z,43.70
2022-10-01T22:12:12.121Z,43.90
2022-10-01T22:27:13.582Z,44.10
2022-10-01T22:42:15.048Z,44.10
2022-10-01T22:57:16.507Z,44.00
2022-10-01T23:12:18.047Z,44.10
2022-10-01T23:27:19.497Z,44.10
2022-10-01T23:42:21.038Z,44.10
2022-10-01T23:57:22.484Z,44.00
